Time;durP1;ratioP1;P1;durP2;ratioP2;P2;SDS_P1;SDS_P2;PMS_P1;PMS_P2;Temp;Humidity;BMP_temperature;BMP_pressure;BME280_temperature;BME280_humidity;BME280_pressure;Samples;Min_cycle;Max_cycle;Signal;HPM_P1;HPM_P2
2021/05/11 00:00:44;;;;;;;7.45;3.95;;;;;;;19.02;47.14;99739.47;4350288;32;33793;-82
2021/05/11 00:03:12;;;;;;;6.60;4.28;;;;;;;18.97;47.13;99730.00;4363592;32;34376;-82
2021/05/11 00:05:39;;;;;;;7.93;4.32;;;;;;;18.93;47.33;99740.66;4350279;32;35038;-82
2021/05/11 00:08:07;;;;;;;10.90;4.70;;;;;;;19.01;47.22;99729.84;4338102;32;34904;-82
2021/05/11 00:10:34;;;;;;;7.70;4.03;;;;;;;18.77;48.02;99734.19;4362264;32;33796;-82
2021/05/11 00:13:01;;;;;;;8.65;4.28;;;;;;;18.90;47.08;99734.63;4350254;32;34027;-82
2021/05/11 00:15:28;;;;;;;6.97;3.85;;;;;;;18.83;47.36;99733.09;4349970;32;34877;-83
2021/05/11 00:17:56;;;;;;;8.25;4.30;;;;;;;18.82;47.73;99739.31;4362306;32;33355;-82
2021/05/11 00:20:23;;;;;;;5.75;3.92;;;;;;;18.87;47.90;99732.94;4363380;32;34497;-83
2021/05/11 00:22:50;;;;;;;7.43;3.83;;;;;;;18.89;47.55;99730.28;4350262;32;34723;-82
2021/05/11 00:25:17;;;;;;;7.65;3.95;;;;;;;18.81;47.70;99730.53;4363131;32;34262;-82
2021/05/11 00:27:46;;;;;;;7.00;3.80;;;;;;;18.86;47.67;99725.09;4337807;32;33576;-82
2021/05/11 00:30:13;;;;;;;8.73;3.87;;;;;;;18.87;47.58;99725.03;4336632;32;33508;-82
2021/05/11 00:32:41;;;;;;;7.03;4.25;;;;;;;18.90;47.61;99727.56;4349540;32;34429;-82
2021/05/11 00:35:08;;;;;;;8.00;4.05;;;;;;;18.88;47.83;99725.91;4349906;32;33910;-82
2021/05/11 00:37:36;;;;;;;7.18;3.58;;;;;;;18.88;47.84;99728.53;4337797;32;33614;-83
2021/05/11 00:40:05;;;;;;;8.55;3.75;;;;;;;18.89;47.57;99735.56;4358148;32;33736;-82
2021/05/11 00:42:33;;;;;;;9.02;3.75;;;;;;;18.86;47.58;99731.25;4377232;32;35327;-83
2021/05/11 00:45:01;;;;;;;6.60;4.15;;;;;;;18.92;47.34;99730.19;4378139;32;34141;-82
2021/05/11 00:47:30;;;;;;;8.32;4.20;;;;;;;19.06;46.79;99725.28;4374036;32;94519;-82
2021/05/11 00:49:57;;;;;;;9.52;3.90;;;;;;;19.09;46.80;99730.41;4364346;32;33917;-82
2021/05/11 00:52:24;;;;;;;5.45;3.80;;;;;;;19.11;46.85;99727.75;4376860;32;34532;-82
2021/05/11 00:54:52;;;;;;;8.50;4.55;;;;;;;19.18;46.76;99729.25;4377782;32;33923;-81
2021/05/11 00:57:19;;;;;;;5.97;3.53;;;;;;;19.16;46.93;99731.09;4364464;32;34551;-82
2021/05/11 00:59:47;;;;;;;6.50;3.90;;;;;;;19.21;46.59;99731.75;4370753;32;35068;-82
2021/05/11 01:02:14;;;;;;;6.72;3.60;;;;;;;19.10;46.77;99734.78;4354114;32;33472;-82
2021/05/11 01:04:41;;;;;;;11.45;4.00;;;;;;;19.20;46.08;99728.28;4378314;32;35105;-82
2021/05/11 01:07:09;;;;;;;7.22;3.80;;;;;;;19.22;46.50;99720.31;4364074;32;33590;-82
2021/05/11 01:09:36;;;;;;;11.95;4.05;;;;;;;19.24;46.70;99735.16;4364251;32;33986;-82
2021/05/11 01:12:04;;;;;;;5.62;3.87;;;;;;;19.12;46.85;99729.44;4364303;32;34724;-82
2021/05/11 01:14:31;;;;;;;8.13;3.90;;;;;;;19.26;46.42;99728.03;4364071;32;34206;-82
2021/05/11 01:17:00;;;;;;;8.30;4.05;;;;;;;19.22;46.61;99734.34;4364482;32;34413;-82
2021/05/11 01:22:28;;;;;;;6.45;4.07;;;;;;;19.21;47.05;99737.03;4366143;32;34590;-82
2021/05/11 01:25:00;;;;;;;7.12;4.20;;;;;;;18.98;47.22;99737.84;4377664;32;34760;-82
2021/05/11 01:43:52;;;;;;;7.07;4.20;;;;;;;18.89;47.66;99733.78;4363744;32;34850;-83
2021/05/11 01:46:34;;;;;;;7.82;4.43;;;;;;;18.81;48.08;99720.00;4379380;32;34184;-83
2021/05/11 01:49:13;;;;;;;7.65;4.20;;;;;;;18.71;48.50;99715.09;4379194;32;34389;-84
2021/05/11 02:24:42;;;;;;;6.35;3.97;;;;;;;18.34;48.95;99712.81;4367505;32;33999;-82
2021/05/11 02:27:09;;;;;;;12.68;4.03;;;;;;;18.36;48.83;99716.25;4365651;32;34788;-82
2021/05/11 02:29:36;;;;;;;7.53;3.90;;;;;;;18.42;48.59;99712.56;4362565;32;34521;-82
2021/05/11 02:32:05;;;;;;;6.47;4.10;;;;;;;18.53;48.34;99718.34;4383728;32;33893;-82
2021/05/11 02:34:32;;;;;;;5.95;4.53;;;;;;;18.68;48.17;99712.59;4378929;32;33763;-82
2021/05/11 02:36:59;;;;;;;11.05;4.15;;;;;;;18.56;48.39;99713.88;4378347;32;34571;-82
2021/05/11 02:39:26;;;;;;;8.15;3.55;;;;;;;18.48;48.61;99715.00;4364723;32;34435;-82
2021/05/11 02:41:53;;;;;;;10.20;4.20;;;;;;;18.42;48.63;99704.66;4368838;32;33722;-82
2021/05/11 02:44:21;;;;;;;6.57;4.00;;;;;;;18.33;48.68;99697.91;4381482;32;33380;-82
2021/05/11 02:46:49;;;;;;;10.23;4.05;;;;;;;18.43;48.50;99698.47;4356051;32;33444;-82
2021/05/11 02:49:19;;;;;;;9.25;4.10;;;;;;;18.44;48.58;99690.53;4365634;32;34647;-82
2021/05/11 02:51:46;;;;;;;7.57;4.05;;;;;;;18.52;48.44;99695.59;4365514;32;33367;-83
2021/05/11 02:54:13;;;;;;;6.75;4.12;;;;;;;18.65;48.01;99689.84;4377543;32;33926;-83
2021/05/11 02:56:40;;;;;;;9.85;4.30;;;;;;;18.55;48.24;99695.47;4378913;32;34749;-82
2021/05/11 02:59:07;;;;;;;6.45;3.75;;;;;;;18.47;48.39;99697.50;4365619;32;34123;-82
2021/05/11 03:01:35;;;;;;;11.65;4.72;;;;;;;18.47;48.43;99694.88;4378634;32;33567;-83
2021/05/11 03:04:03;;;;;;;5.95;4.00;;;;;;;18.46;48.27;99695.78;4365199;32;34845;-83
2021/05/11 03:06:30;;;;;;;9.10;4.00;;;;;;;18.52;48.16;99696.41;4353127;32;34621;-83
2021/05/11 03:08:57;;;;;;;6.53;3.80;;;;;;;18.46;48.36;99701.03;4367259;32;34812;-94
2021/05/11 03:11:36;;;;;;;8.50;4.50;;;;;;;18.43;48.36;99701.09;4352345;32;33355;-93
2021/05/11 03:14:32;;;;;;;6.72;4.70;;;;;;;18.39;48.31;99705.63;4354477;32;34298;-94
2021/05/11 03:17:11;;;;;;;6.47;4.20;;;;;;;18.56;48.12;99705.09;4352818;32;34493;-93
2021/05/11 03:20:06;;;;;;;6.35;4.05;;;;;;;18.55;48.08;99708.62;4354397;32;34388;-94
2021/05/11 03:22:45;;;;;;;5.80;4.47;;;;;;;18.52;48.08;99706.94;4342237;32;33404;-95
2021/05/11 03:25:37;;;;;;;10.43;4.83;;;;;;;18.32;48.58;99708.50;4349884;33;35011;-94
2021/05/11 03:28:19;;;;;;;6.87;4.45;;;;;;;18.32;48.61;99713.78;4344862;33;35249;-94
2021/05/11 03:31:10;;;;;;;6.97;4.65;;;;;;;18.40;48.56;99706.50;4339196;33;33397;-94
2021/05/11 03:33:49;;;;;;;8.63;4.40;;;;;;;18.23;48.66;99709.69;4337456;33;33075;-94
2021/05/11 03:36:40;;;;;;;8.55;4.50;;;;;;;18.28;48.47;99708.59;4335986;33;32977;-93
2021/05/11 03:39:20;;;;;;;6.72;4.35;;;;;;;18.41;48.46;99708.19;4366967;32;34370;-94
2021/05/11 03:44:57;;;;;;;8.50;4.35;;;;;;;18.41;48.64;99716.09;4349267;33;33224;-93
2021/05/11 03:47:44;;;;;;;6.47;4.15;;;;;;;18.55;48.32;99719.16;4367745;32;33860;-94
2021/05/11 03:50:36;;;;;;;6.18;4.65;;;;;;;18.48;48.55;99707.97;4338805;33;35129;-95
2021/05/11 03:53:16;;;;;;;7.37;5.03;;;;;;;18.65;48.23;99712.69;4348634;33;34005;-93
2021/05/11 03:56:07;;;;;;;11.80;4.80;;;;;;;18.57;48.52;99710.31;4362988;32;33564;-94
2021/05/11 03:58:47;;;;;;;14.05;4.78;;;;;;;18.46;48.52;99708.94;4351874;32;34014;-93
2021/05/11 04:01:39;;;;;;;6.12;5.10;;;;;;;18.51;48.51;99718.41;4368195;32;34305;-94
2021/05/11 04:04:20;;;;;;;13.15;5.50;;;;;;;18.49;48.38;99700.94;4376247;32;34213;-96
2021/05/11 04:06:59;;;;;;;11.05;5.10;;;;;;;18.73;47.81;99710.66;4367895;32;34550;-95
2021/05/11 04:10:00;;;;;;;8.25;5.00;;;;;;;18.67;48.29;99710.84;4339949;32;34138;-95
2021/05/11 04:18:25;;;;;;;10.63;5.53;;;;;;;18.68;48.20;99705.53;4312906;33;33492;-95
2021/05/11 04:21:06;;;;;;;8.80;5.07;;;;;;;18.88;47.76;99704.81;4363519;32;34929;-94
2021/05/11 04:23:46;;;;;;;10.88;4.90;;;;;;;18.85;47.75;99708.44;4366848;32;34270;-93
2021/05/11 04:26:37;;;;;;;9.60;4.67;;;;;;;18.81;47.66;99703.31;4349258;33;33981;-96
2021/05/11 04:29:17;;;;;;;9.95;4.90;;;;;;;18.97;47.33;99701.84;4363581;32;33179;-95
2021/05/11 04:32:08;;;;;;;6.90;5.00;;;;;;;19.01;47.32;99702.63;4347614;33;33320;-95
2021/05/11 04:34:48;;;;;;;8.65;4.97;;;;;;;19.04;47.12;99708.62;4336898;33;35525;-95
2021/05/11 04:37:43;;;;;;;12.25;4.62;;;;;;;19.17;46.66;99706.41;4333489;33;34192;-95
2021/05/11 04:40:35;;;;;;;9.20;4.55;;;;;;;19.14;46.53;99707.41;4337627;33;33156;-93
2021/05/11 04:43:31;;;;;;;12.77;4.28;;;;;;;19.18;46.21;99702.88;4336546;33;34606;-94
2021/05/11 04:46:24;;;;;;;8.25;4.18;;;;;;;19.18;45.98;99703.75;4335943;33;33918;-92
2021/05/11 04:49:04;;;;;;;8.57;3.75;;;;;;;19.33;45.82;99702.28;4361967;32;34523;-94
2021/05/11 04:51:32;;;;;;;6.93;4.12;;;;;;;19.39;45.62;99703.00;4351271;32;32766;-92
2021/05/11 04:54:24;;;;;;;7.73;4.13;;;;;;;19.35;45.21;99711.87;4337673;33;33698;-93
2021/05/11 04:57:04;;;;;;;10.85;4.20;;;;;;;19.36;45.03;99711.00;4335702;33;33798;-93
2021/05/11 05:00:08;;;;;;;;;;;;;;;19.30;45.29;99707.72;4338448;33;33778;-93
2021/05/11 05:03:00;;;;;;;8.30;4.25;;;;;;;19.27;45.21;99707.81;4369383;32;32636;-93
2021/05/11 05:05:52;;;;;;;7.50;3.92;;;;;;;19.45;45.06;99710.66;4334775;33;33681;-93
2021/05/11 05:08:31;;;;;;;13.90;4.72;;;;;;;19.53;45.06;99703.31;4324637;33;35174;-93
2021/05/11 05:11:11;;;;;;;13.98;5.00;;;;;;;19.68;45.10;99703.66;4336090;33;33879;-93
2021/05/11 05:13:50;;;;;;;11.35;4.62;;;;;;;19.62;45.15;99695.97;4353198;32;32697;-93
2021/05/11 05:16:32;;;;;;;5.70;4.03;;;;;;;19.70;44.74;99701.81;4356066;32;34489;-94
2021/05/11 05:19:11;;;;;;;7.50;4.28;;;;;;;19.74;44.83;99700.75;4367920;32;34550;-95
2021/05/11 05:22:07;;;;;;;5.57;3.28;;;;;;;19.76;44.54;99707.69;4363982;32;33986;-88
2021/05/11 05:24:43;;;;;;;6.82;3.37;;;;;;;19.92;43.68;99707.97;4351717;32;33474;-89
2021/05/11 05:27:26;;;;;;;7.12;3.45;;;;;;;19.97;44.05;99706.84;4352400;32;34029;-90
2021/05/11 05:29:53;;;;;;;5.03;3.45;;;;;;;19.86;43.93;99708.22;4340945;32;34646;-88
2021/05/11 05:32:22;;;;;;;7.95;3.78;;;;;;;19.97;43.03;99703.34;4343033;32;34105;-91
2021/05/11 05:34:51;;;;;;;5.57;3.15;;;;;;;20.17;42.19;99709.56;4340878;32;33875;-89
2021/05/11 05:37:19;;;;;;;8.95;3.53;;;;;;;20.20;42.74;99711.22;4340019;32;34258;-92
2021/05/11 05:39:53;;;;;;;8.75;3.10;;;;;;;20.14;42.40;99709.69;4327841;32;34281;-89
2021/05/11 05:42:21;;;;;;;8.68;3.33;;;;;;;20.15;41.67;99710.56;4352353;32;34463;-89
2021/05/11 05:44:49;;;;;;;8.40;3.22;;;;;;;20.39;41.41;99706.94;4340512;32;34666;-89
2021/05/11 05:47:18;;;;;;;6.35;2.78;;;;;;;20.38;41.59;99702.56;4365550;32;33843;-90
2021/05/11 05:49:48;;;;;;;7.00;2.97;;;;;;;20.53;40.76;99707.22;4339969;32;35845;-90
2021/05/11 05:52:20;;;;;;;7.12;2.58;;;;;;;20.53;39.92;99701.09;4340454;32;34664;-89
2021/05/11 05:54:48;;;;;;;;;;;;;;;20.72;39.74;99697.59;4352854;32;34010;-92
2021/05/11 05:57:16;;;;;;;6.53;2.58;;;;;;;20.79;39.35;99704.34;4339979;32;34315;-89
2021/05/11 05:59:44;;;;;;;6.87;2.85;;;;;;;20.83;39.00;99702.41;4352809;32;34495;-89
2021/05/11 06:02:19;;;;;;;3.92;2.72;;;;;;;21.00;39.11;99699.03;4352177;32;33517;-88
2021/05/11 06:04:47;;;;;;;4.22;2.55;;;;;;;21.35;38.70;99703.63;4353493;32;34170;-88
2021/05/11 06:07:16;;;;;;;10.35;3.20;;;;;;;21.45;38.59;99692.56;4340462;32;33835;-88
2021/05/11 06:09:45;;;;;;;6.78;2.80;;;;;;;21.56;38.35;99694.75;4340756;32;33954;-88
2021/05/11 06:12:33;;;;;;;6.55;2.67;;;;;;;21.57;38.23;99693.78;4351899;32;34364;-89
2021/05/11 06:17:36;;;;;;;9.10;2.83;;;;;;;21.96;38.02;99697.25;4353474;32;33815;-90
2021/05/11 06:20:04;;;;;;;9.45;2.78;;;;;;;21.86;37.84;99697.75;4344568;32;34194;-89
2021/05/11 06:22:33;;;;;;;8.02;2.70;;;;;;;21.96;37.32;99702.53;4353066;32;33561;-90
2021/05/11 06:25:01;;;;;;;6.97;2.58;;;;;;;22.05;37.33;99702.09;4339051;32;32898;-89
2021/05/11 06:27:29;;;;;;;8.50;2.92;;;;;;;22.18;37.31;99695.25;4338416;32;33322;-89
2021/05/11 06:29:56;;;;;;;6.15;2.50;;;;;;;22.32;36.96;99691.09;4351527;32;35522;-90
2021/05/11 06:32:25;;;;;;;5.70;2.92;;;;;;;22.50;36.65;99701.63;4339000;32;33427;-91
2021/05/11 06:35:02;;;;;;;4.37;2.42;;;;;;;22.53;36.79;99695.31;4339046;32;33824;-90
2021/05/11 06:37:30;;;;;;;7.28;2.40;;;;;;;22.55;36.63;99691.66;4351048;32;33343;-89
2021/05/11 06:39:59;;;;;;;8.35;2.40;;;;;;;22.65;36.60;99689.41;4339028;32;35878;-91
2021/05/11 06:42:29;;;;;;;7.68;2.80;;;;;;;22.86;35.97;99689.19;4339234;32;34638;-89
2021/05/11 06:45:26;;;;;;;13.70;3.05;;;;;;;22.95;35.71;99689.63;4339941;32;33715;-90
2021/05/11 06:48:20;;;;;;;9.77;2.20;;;;;;;23.20;35.46;99687.41;4342553;32;33826;-89
2021/05/11 06:53:52;;;;;;;6.45;2.47;;;;;;;23.52;34.88;99682.09;4354218;32;34244;-90
2021/05/11 06:56:23;;;;;;;9.45;2.40;;;;;;;23.78;34.19;99682.44;4339295;32;33040;-90
2021/05/11 06:58:51;;;;;;;10.95;2.72;;;;;;;23.83;33.80;99680.37;4339685;32;33473;-89
2021/05/11 07:01:21;;;;;;;8.10;2.40;;;;;;;24.02;34.12;99686.38;4352634;32;34918;-90
2021/05/11 07:03:49;;;;;;;11.77;2.40;;;;;;;24.10;33.34;99686.84;4354865;32;34864;-88
2021/05/11 07:06:18;;;;;;;7.80;3.17;;;;;;;24.18;33.25;99677.47;4363726;32;33398;-90
2021/05/11 07:09:06;;;;;;;5.50;2.35;;;;;;;24.18;32.98;99676.62;4351905;32;34064;-89
2021/05/11 07:14:18;;;;;;;7.47;2.58;;;;;;;24.33;32.85;99674.88;4336680;33;34276;-90
2021/05/11 07:16:56;;;;;;;3.78;2.40;;;;;;;24.52;32.57;99664.88;4326696;33;32942;-90
2021/05/11 07:19:25;;;;;;;5.18;2.35;;;;;;;24.64;32.67;99665.03;4337652;33;34626;-89
2021/05/11 07:21:52;;;;;;;4.18;2.15;;;;;;;24.83;32.54;99663.00;4337442;33;34715;-89
2021/05/11 07:24:26;;;;;;;8.55;2.58;;;;;;;25.09;31.85;99655.22;4349789;33;34282;-90
2021/05/11 07:29:55;;;;;;;10.13;3.00;;;;;;;25.18;31.48;99659.97;4338092;33;34291;-89
2021/05/11 07:32:23;;;;;;;6.85;2.40;;;;;;;25.51;31.74;99665.87;4339225;33;34212;-89
2021/05/11 07:34:54;;;;;;;6.40;2.67;;;;;;;25.67;31.96;99655.12;4349895;32;34121;-90
2021/05/11 07:37:22;;;;;;;7.87;2.70;;;;;;;25.69;30.97;99659.41;4336768;33;34203;-88
2021/05/11 07:39:50;;;;;;;5.75;2.12;;;;;;;25.78;31.02;99655.28;4336620;33;33207;-90
2021/05/11 07:42:20;;;;;;;7.35;2.60;;;;;;;25.57;31.28;99668.16;4348944;33;34369;-89
2021/05/11 07:44:50;;;;;;;5.25;2.40;;;;;;;25.59;30.86;99671.59;4349904;33;34937;-89
2021/05/11 08:17:37;;;;;;;18.62;7.43;;;;;;;26.53;29.33;99679.56;4354783;32;34006;-90
2021/05/11 08:32:11;;;;;;;3.60;2.60;;;;;;;27.02;28.53;99674.47;4346885;32;34342;-89
2021/05/11 08:34:39;;;;;;;5.65;2.62;;;;;;;27.02;28.74;99662.91;4350542;32;34016;-90
2021/05/11 08:37:15;;;;;;;9.48;2.30;;;;;;;27.13;28.46;99673.69;4351111;32;35852;-89
2021/05/11 08:39:51;;;;;;;6.32;2.17;;;;;;;27.06;28.12;99670.59;4325132;33;34495;-89
2021/05/11 08:42:19;;;;;;;5.47;2.30;;;;;;;27.14;28.48;99670.94;4335780;33;32915;-88
2021/05/11 08:44:48;;;;;;;10.20;2.50;;;;;;;27.08;28.21;99675.81;4349170;33;34649;-95
2021/05/11 08:47:24;;;;;;;6.15;2.28;;;;;;;27.21;28.26;99679.38;4338506;33;34379;-89
2021/05/11 09:06:50;;;;;;;4.80;2.97;;;;;;;27.37;27.80;99656.84;4327917;33;33070;-88
2021/05/11 09:09:35;;;;;;;5.87;2.10;;;;;;;27.66;27.60;99656.56;4332381;33;33363;-88
2021/05/11 09:15:36;;;;;;;6.45;2.40;;;;;;;27.73;27.39;99650.66;4322367;33;34067;-88
2021/05/11 09:31:22;;;;;;;7.97;3.22;;;;;;;28.02;26.23;99629.84;4317763;33;33845;-89
2021/05/11 09:45:38;;;;;;;8.93;4.75;;;;;;;28.24;25.72;99635.31;4323905;33;35778;-89
2021/05/11 09:51:18;;;;;;;8.18;3.50;;;;;;;28.45;25.88;99632.81;4310788;33;32623;-89
2021/05/11 09:56:52;;;;;;;7.45;3.90;;;;;;;28.62;25.00;99624.41;4319395;33;34200;-89
2021/05/11 10:14:45;;;;;;;5.40;2.37;;;;;;;28.98;23.88;99615.34;4335877;33;34305;-88
2021/05/11 10:38:11;;;;;;;6.32;2.10;;;;;;;29.33;23.49;99583.97;4333049;33;33721;-90
2021/05/11 10:40:52;;;;;;;4.10;2.30;;;;;;;29.01;23.66;99581.13;4335526;33;34746;-88
2021/05/11 10:47:15;;;;;;;3.87;2.08;;;;;;;29.21;23.52;99583.13;4357109;32;33182;-87
2021/05/11 10:49:31;;;;;;;6.15;3.17;;;;;;;29.36;23.30;99578.34;4355090;32;33772;-91
2021/05/11 10:55:01;;;;;;;5.47;1.95;;;;;;;29.51;22.29;99566.37;4347933;32;35261;-87
2021/05/11 10:57:39;;;;;;;;;;;;;;;29.37;22.51;99569.34;4360799;32;33880;-87
2021/05/11 11:03:13;;;;;;;4.10;2.12;;;;;;;29.39;22.52;99562.88;4323549;32;32611;-87
2021/05/11 11:05:55;;;;;;;;;;;;;;;29.50;21.99;99553.97;4336177;32;35245;-87
2021/05/11 11:08:41;;;;;;;3.78;1.98;;;;;;;29.32;22.39;99544.75;4342049;33;34897;-88
2021/05/11 11:11:20;;;;;;;3.83;2.00;;;;;;;29.59;22.71;99542.50;4342224;33;33507;-87
2021/05/11 11:13:52;;;;;;;5.45;2.33;;;;;;;29.48;22.04;99531.78;4355789;32;35143;-86
2021/05/11 11:16:40;;;;;;;7.30;2.00;;;;;;;29.64;22.43;99528.72;4339858;32;34540;-85
2021/05/11 11:19:09;;;;;;;6.40;2.20;;;;;;;29.59;21.91;99525.56;4355936;32;35189;-85
2021/05/11 11:24:30;;;;;;;5.35;1.98;;;;;;;29.68;21.59;99522.13;4332696;32;33545;-87
2021/05/11 11:26:59;;;;;;;6.25;2.00;;;;;;;29.80;21.58;99527.34;4341028;33;35090;-82
2021/05/11 11:29:27;;;;;;;5.25;2.00;;;;;;;29.95;21.17;99525.22;4334423;33;33767;-81
2021/05/11 11:31:55;;;;;;;5.03;2.10;;;;;;;30.04;21.31;99516.41;4356872;32;33885;-82
2021/05/11 11:34:40;;;;;;;6.28;1.90;;;;;;;30.07;21.61;99513.47;4345948;32;33962;-84
2021/05/11 11:37:30;;;;;;;9.85;2.50;;;;;;;29.95;21.71;99507.28;4340682;33;35318;-83
2021/05/11 11:40:00;;;;;;;6.95;2.90;;;;;;;29.91;22.36;99494.25;4345708;32;35241;-82
2021/05/11 11:42:41;;;;;;;6.62;2.22;;;;;;;30.09;21.74;99496.25;4342559;33;33609;-81
2021/05/11 11:45:31;;;;;;;13.23;6.12;;;;;;;30.12;21.46;99487.94;4336311;33;33865;-83
2021/05/11 11:48:04;;;;;;;6.75;2.35;;;;;;;30.11;21.70;99491.63;4334565;32;33953;-83
2021/05/11 11:50:37;;;;;;;6.72;2.83;;;;;;;30.09;21.78;99474.81;4331438;32;33580;-84
2021/05/11 11:53:13;;;;;;;11.85;2.20;;;;;;;30.14;21.81;99474.41;4344563;32;32705;-85
2021/05/11 11:58:21;;;;;;;5.72;2.47;;;;;;;30.08;21.37;99461.50;4344233;32;34347;-83
2021/05/11 12:00:49;;;;;;;3.85;2.17;;;;;;;29.91;21.67;99462.94;4341498;33;34783;-81
2021/05/11 12:03:21;;;;;;;5.68;2.28;;;;;;;29.99;20.71;99455.13;4356537;32;34302;-83
2021/05/11 12:05:51;;;;;;;4.57;1.95;;;;;;;29.89;21.10;99456.88;4329049;32;33334;-82
2021/05/11 12:08:28;;;;;;;3.85;2.60;;;;;;;30.15;20.90;99442.09;4334017;33;34079;-83
2021/05/11 12:11:06;;;;;;;6.82;2.28;;;;;;;30.20;20.95;99435.47;4348657;32;34017;-82
2021/05/11 12:13:38;;;;;;;4.43;2.08;;;;;;;30.42;21.08;99430.84;4348355;32;33579;-82
2021/05/11 12:16:19;;;;;;;;;;;;;;;30.33;20.91;99433.44;4341224;32;34488;-82
2021/05/11 12:19:01;;;;;;;5.15;2.28;;;;;;;30.25;20.83;99422.50;4353245;32;35537;-81
2021/05/11 12:21:33;;;;;;;4.72;2.00;;;;;;;30.40;21.31;99413.16;4354894;32;33995;-81
2021/05/11 12:24:03;;;;;;;5.37;2.00;;;;;;;30.57;20.79;99420.59;4334150;33;33248;-81
2021/05/11 12:26:30;;;;;;;4.35;1.98;;;;;;;30.27;20.43;99413.34;4337907;32;33473;-82
2021/05/11 12:29:14;;;;;;;9.25;2.17;;;;;;;30.51;20.67;99415.75;4349079;32;34754;-81
2021/05/11 12:31:45;;;;;;;5.07;2.22;;;;;;;30.59;20.72;99405.19;4348362;32;34100;-82
2021/05/11 12:34:15;;;;;;;7.40;2.03;;;;;;;30.26;20.27;99402.75;4338807;33;33299;-82
2021/05/11 12:36:51;;;;;;;4.47;2.12;;;;;;;30.26;20.58;99397.41;4339759;32;34687;-81
2021/05/11 12:42:18;;;;;;;10.27;3.25;;;;;;;30.42;19.63;99389.72;4341205;32;34412;-80
2021/05/11 12:45:14;;;;;;;7.57;2.80;;;;;;;30.61;19.15;99401.41;4334929;33;33434;-81
2021/05/11 12:47:48;;;;;;;4.80;2.15;;;;;;;30.60;19.53;99390.78;4346798;32;33966;-81
2021/05/11 12:50:29;;;;;;;4.50;2.10;;;;;;;30.73;19.54;99389.56;4350810;32;35719;-82
2021/05/11 12:53:03;;;;;;;3.53;1.98;;;;;;;30.67;19.50;99387.41;4337003;32;34064;-80
2021/05/11 12:59:16;;;;;;;4.55;2.45;;;;;;;30.31;19.06;99384.44;4328603;33;33720;-82
2021/05/11 13:05:06;;;;;;;7.15;1.98;;;;;;;30.58;19.77;99371.28;4330802;33;33935;-80
2021/05/11 13:25:44;;;;;;;3.67;1.70;;;;;;;31.10;19.33;99344.13;4334834;33;34424;-82
2021/05/11 13:30:51;;;;;;;3.22;1.77;;;;;;;30.88;19.11;99341.66;4338781;33;33882;-82
2021/05/11 13:33:58;;;;;;;3.08;1.65;;;;;;;30.72;19.46;99342.22;4339633;33;34393;-83
2021/05/11 13:36:26;;;;;;;5.45;2.03;;;;;;;30.52;19.86;99323.53;4332094;33;35230;-82
2021/05/11 13:38:54;;;;;;;7.25;1.98;;;;;;;30.55;20.13;99323.22;4347906;33;34164;-81
2021/05/11 13:41:21;;;;;;;7.85;1.80;;;;;;;30.93;19.85;99317.13;4347958;33;33972;-81
2021/05/11 13:43:49;;;;;;;3.28;1.98;;;;;;;30.84;20.05;99316.09;4336423;33;34471;-85
2021/05/11 13:46:21;;;;;;;3.85;1.87;;;;;;;30.95;19.84;99320.53;4316456;33;34044;-79
2021/05/11 13:48:50;;;;;;;9.45;2.60;;;;;;;30.97;19.75;99303.28;4334770;33;33491;-82
2021/05/11 13:51:20;;;;;;;4.32;1.73;;;;;;;31.05;20.11;99306.09;4348661;33;33669;-82
2021/05/11 13:53:54;;;;;;;2.58;1.70;;;;;;;31.02;19.48;99301.03;4323248;33;35240;-82
2021/05/11 14:02:18;;;;;;;4.35;1.85;;;;;;;30.88;19.77;99297.88;4336847;32;34867;-82
2021/05/11 14:05:01;;;;;;;4.95;2.03;;;;;;;30.72;20.16;99293.03;4327298;33;34551;-83
2021/05/11 14:07:39;;;;;;;2.47;1.87;;;;;;;30.51;20.11;99284.25;4348909;33;34111;-83
2021/05/11 14:10:08;;;;;;;4.95;2.17;;;;;;;30.49;20.58;99283.53;4347904;33;34688;-82
2021/05/11 14:12:41;;;;;;;3.83;1.75;;;;;;;30.76;20.52;99279.19;4347720;33;33813;-81
2021/05/11 14:15:17;;;;;;;7.75;1.65;;;;;;;30.77;20.83;99277.37;4347671;33;35781;-82
2021/05/11 14:17:45;;;;;;;6.18;1.80;;;;;;;30.79;20.48;99267.34;4347587;33;33693;-83
2021/05/11 14:20:13;;;;;;;4.15;2.10;;;;;;;30.67;20.88;99263.09;4350374;32;34144;-84
2021/05/11 14:22:41;;;;;;;6.43;2.15;;;;;;;30.90;19.97;99264.56;4363588;32;35440;-82
2021/05/11 14:25:11;;;;;;;5.97;1.67;;;;;;;31.01;19.96;99256.34;4363412;32;35467;-82
2021/05/11 14:27:39;;;;;;;5.93;2.25;;;;;;;30.75;20.16;99261.41;4350606;32;33414;-83
2021/05/11 14:30:07;;;;;;;3.78;1.90;;;;;;;30.89;20.16;99257.47;4363881;32;34858;-83
2021/05/11 14:32:35;;;;;;;7.82;2.08;;;;;;;30.84;20.22;99259.72;4350706;32;33929;-83
2021/05/11 14:35:04;;;;;;;9.82;2.03;;;;;;;30.77;19.77;99254.06;4337938;32;34822;-81
2021/05/11 14:37:32;;;;;;;5.18;1.75;;;;;;;30.52;20.32;99259.97;4363251;32;34508;-81
2021/05/11 14:39:59;;;;;;;5.43;1.80;;;;;;;30.45;20.41;99257.97;4350237;32;33488;-83
2021/05/11 14:42:27;;;;;;;5.00;1.55;;;;;;;30.49;20.25;99248.66;4350457;32;33886;-83
2021/05/11 14:44:55;;;;;;;6.15;2.00;;;;;;;30.31;20.34;99248.44;4337888;32;34037;-83
2021/05/11 14:47:22;;;;;;;2.97;1.75;;;;;;;30.36;20.43;99248.09;4350156;32;34006;-84
2021/05/11 14:49:50;;;;;;;4.72;1.73;;;;;;;30.49;20.53;99249.53;4362667;32;33920;-82
2021/05/11 14:52:18;;;;;;;5.45;1.87;;;;;;;30.68;20.31;99251.38;4363591;32;33806;-82
2021/05/11 14:54:46;;;;;;;4.22;1.87;;;;;;;30.58;20.27;99259.41;4350108;32;34872;-82
2021/05/11 14:57:15;;;;;;;3.67;1.55;;;;;;;30.72;20.11;99250.09;4349748;32;34894;-82
2021/05/11 14:59:42;;;;;;;3.70;1.50;;;;;;;30.60;20.46;99257.44;4349790;32;32675;-82
2021/05/11 15:02:14;;;;;;;4.85;1.70;;;;;;;30.52;20.67;99253.75;4363840;32;33941;-83
2021/05/11 15:04:43;;;;;;;;;;;;;;;30.57;20.04;99249.66;4338856;32;35876;-83
2021/05/11 15:07:11;;;;;;;4.53;1.62;;;;;;;30.39;20.15;99245.09;4362597;32;34443;-81
2021/05/11 15:09:40;;;;;;;5.93;1.80;;;;;;;30.42;20.60;99242.16;4362587;32;33345;-80
2021/05/11 15:12:08;;;;;;;5.87;1.70;;;;;;;30.44;20.19;99241.03;4349334;32;33823;-80
2021/05/11 15:14:36;;;;;;;9.18;2.35;;;;;;;30.55;19.96;99226.63;4348997;32;35675;-82
2021/05/11 15:19:51;;;;;;;2.12;1.48;;;;;;;30.45;20.12;99225.78;4359156;32;33213;-81
2021/05/11 15:22:20;;;;;;;8.45;1.80;;;;;;;30.39;20.17;99219.12;4333536;33;33948;-80
2021/05/11 15:24:49;;;;;;;5.75;1.90;;;;;;;30.22;20.62;99218.91;4345359;33;35236;-80
2021/05/11 15:27:18;;;;;;;4.30;1.42;;;;;;;30.31;20.74;99215.44;4348050;33;33988;-88
2021/05/11 15:29:49;;;;;;;;;;;;;;;30.33;20.83;99210.78;4335710;33;34659;-88
2021/05/11 15:32:39;;;;;;;4.55;1.80;;;;;;;30.38;21.80;99211.22;4348501;33;34132;-89
2021/05/11 15:35:13;;;;;;;5.65;1.80;;;;;;;30.50;20.36;99204.75;4347154;33;34351;-89
2021/05/11 15:37:42;;;;;;;3.12;1.62;;;;;;;30.46;20.62;99206.84;4334988;33;34040;-89
2021/05/11 15:40:13;;;;;;;3.42;1.65;;;;;;;30.44;20.15;99197.25;4335203;33;32737;-89
2021/05/11 15:42:41;;;;;;;2.67;1.57;;;;;;;30.28;20.54;99207.66;4335162;33;34949;-90
2021/05/11 15:45:10;;;;;;;6.87;1.60;;;;;;;30.35;20.88;99208.81;4347054;33;34019;-90
2021/05/11 15:47:38;;;;;;;4.07;1.65;;;;;;;30.36;20.90;99195.25;4323181;33;33304;-90
2021/05/11 15:50:06;;;;;;;2.37;1.50;;;;;;;30.31;21.11;99192.09;4347599;33;34604;-90
2021/05/11 15:52:34;;;;;;;7.47;1.90;;;;;;;30.15;21.20;99192.66;4335384;33;33863;-91
2021/05/11 15:55:02;;;;;;;2.62;1.80;;;;;;;30.13;20.95;99189.28;4335394;33;35770;-90
2021/05/11 15:57:31;;;;;;;4.07;1.52;;;;;;;30.14;20.91;99185.59;4335775;33;34372;-91
2021/05/11 15:59:58;;;;;;;5.60;1.70;;;;;;;30.04;20.92;99183.88;4334583;33;34570;-82
2021/05/11 16:02:26;;;;;;;3.40;1.62;;;;;;;29.93;21.31;99184.81;4351563;33;34175;-83
2021/05/11 16:04:54;;;;;;;7.35;1.98;;;;;;;29.75;21.70;99178.41;4347739;33;34611;-82
2021/05/11 16:07:22;;;;;;;5.10;1.73;;;;;;;29.85;21.83;99176.63;4346903;33;35257;-82
2021/05/11 16:09:53;;;;;;;4.95;2.30;;;;;;;29.76;22.03;99174.78;4322321;33;32280;-82
2021/05/11 16:12:21;;;;;;;5.68;3.67;;;;;;;29.80;22.24;99178.87;4331023;33;93917;-81
2021/05/11 16:14:50;;;;;;;3.97;2.65;;;;;;;30.04;21.93;99171.34;4348088;33;34734;-82
2021/05/11 16:17:17;;;;;;;4.40;2.40;;;;;;;29.88;22.28;99165.63;4334572;33;34773;-82
2021/05/11 16:19:47;;;;;;;3.47;1.62;;;;;;;29.64;22.17;99165.13;4337084;32;34792;-82